Terminal Aerodrome Forecast
Issued by NWS

Home | Current Version | Previous Version | Text Only | Print | Product List | Glossary On
Versions: 1 2 3 4 5 6 7 8 9 10 11 12 13 14 15 16 17
000
FTUS46 KMTR 201734
TAFMRY
TAF
KMRY 201734Z 2018/2118 09006KT 3SM +RA BR SCT004 BKN014 OVC028
     FM201900 19015G20KT 3SM +RA BR OVC012 WS015/22040KT
     FM210000 19020G30KT 2SM +RA BKN015 OVC025
     FM211000 19015G20KT 5SM SHRA BR OVC030=

USA.gov is the U.S. government's official web portal to all federal, state and local government web resources and services.